Portada
METAR-TAF:

METAR-TAF

Aeroports :

Aeroport de Can Tho

Cần Thơ, Vietnam

latitud: 10-05-07N, longitud: 105-42-43E, altitud: 3 m

METAR: manca

Hora: 02:30 (19:30 UTC)

Pronòstic

L'informe es va fer fa 2 hores i 30 minuts, a les 17:00 UTC
Pronòstic vàlid del 29 a les 18 UTC al 30 a les 18 UTC
Vent 2 kt amb direcció variable
Visibilitat: 8000 m
Escasses núvols a una alçada de 1300 ft
Cel ennuvolat a una alçada de 4000 ft
Evolucionant progressivament
l' 30 a les 00 UTC al 30 a les 02 UTC
Vent 10 kt del Oest/Sud-Oest
Temporalment
l' 30 a les 08 UTC al 30 a les 12 UTC
Visibilitat: 3000 m
Cel ennuvolat a una alçada de 1300 ft
Núvols disperses a una alçada de 1500 ft, Cumulonimbus.
tempesta, pluja

TAF: VVCT 291700Z 2918/3018 VRB02KT 8000 FEW013 BKN040 BECMG 3000/3002 25010KT TEMPO 3008/3012 3000 TSRA BKN013 SCT015CB

Observacions i pronòstics meteorològics de més de 4000 aeroports (METAR i TAF).

Les estacions disponibles són els punts grocs i vermells al mapa.

Posi el ratolí al punt desitjat per veure el nom de l'estació.

Feu clic per veure les observacions i els pronòstics meteorològics.

Per canviar el mapa: feu clic els botons verds amb una creu de color negre per apropar; al botó verd amb un guió per allunyar la imatge; o en les fletxes verdes per a mapes adjacents.


METAR-TAF: